sensor_id;sensor_type;location;lat;lon;timestamp;P1;durP1;ratioP1;P2;durP2;ratioP2
35602;SDS011;21725;50.836;4.368;2022-09-11T00:00:29;21.70;;;16.58;;
35602;SDS011;21725;50.836;4.368;2022-09-11T00:02:55;25.65;;;15.45;;
35602;SDS011;21725;50.836;4.368;2022-09-11T00:05:21;21.98;;;14.32;;
35602;SDS011;21725;50.836;4.368;2022-09-11T00:07:47;25.70;;;17.00;;
35602;SDS011;21725;50.836;4.368;2022-09-11T00:10:13;26.30;;;17.90;;
35602;SDS011;21725;50.836;4.368;2022-09-11T00:12:38;26.35;;;17.10;;
35602;SDS011;21725;50.836;4.368;2022-09-11T00:15:04;18.23;;;15.15;;
35602;SDS011;21725;50.836;4.368;2022-09-11T00:17:31;23.17;;;15.52;;
35602;SDS011;21725;50.836;4.368;2022-09-11T00:19:57;27.17;;;17.38;;
35602;SDS011;21725;50.836;4.368;2022-09-11T00:22:25;24.98;;;16.90;;
35602;SDS011;21725;50.836;4.368;2022-09-11T00:24:51;25.13;;;18.13;;
35602;SDS011;21725;50.836;4.368;2022-09-11T00:27:19;25.00;;;16.77;;
35602;SDS011;21725;50.836;4.368;2022-09-11T00:29:44;26.88;;;18.75;;
35602;SDS011;21725;50.836;4.368;2022-09-11T00:32:10;25.27;;;15.93;;
35602;SDS011;21725;50.836;4.368;2022-09-11T00:34:36;23.38;;;16.92;;
35602;SDS011;21725;50.836;4.368;2022-09-11T00:37:06;23.80;;;16.10;;
35602;SDS011;21725;50.836;4.368;2022-09-11T00:39:32;22.05;;;16.45;;
35602;SDS011;21725;50.836;4.368;2022-09-11T00:41:57;23.48;;;17.95;;
35602;SDS011;21725;50.836;4.368;2022-09-11T00:47:01;23.95;;;15.70;;
35602;SDS011;21725;50.836;4.368;2022-09-11T00:52:07;23.38;;;16.55;;
35602;SDS011;21725;50.836;4.368;2022-09-11T00:54:35;26.60;;;15.98;;
35602;SDS011;21725;50.836;4.368;2022-09-11T00:57:05;24.23;;;16.23;;
35602;SDS011;21725;50.836;4.368;2022-09-11T00:59:33;21.33;;;17.45;;
35602;SDS011;21725;50.836;4.368;2022-09-11T01:02:00;21.52;;;16.48;;
35602;SDS011;21725;50.836;4.368;2022-09-11T01:04:26;23.20;;;15.85;;
35602;SDS011;21725;50.836;4.368;2022-09-11T01:06:54;23.35;;;17.70;;
35602;SDS011;21725;50.836;4.368;2022-09-11T01:09:22;20.77;;;15.20;;
35602;SDS011;21725;50.836;4.368;2022-09-11T01:14:58;25.33;;;16.65;;
35602;SDS011;21725;50.836;4.368;2022-09-11T01:17:51;23.50;;;15.85;;
35602;SDS011;21725;50.836;4.368;2022-09-11T01:20:34;24.00;;;16.70;;
35602;SDS011;21725;50.836;4.368;2022-09-11T01:31:24;25.15;;;19.08;;
35602;SDS011;21725;50.836;4.368;2022-09-11T01:33:58;22.88;;;16.63;;
35602;SDS011;21725;50.836;4.368;2022-09-11T01:36:28;24.67;;;17.80;;
35602;SDS011;21725;50.836;4.368;2022-09-11T01:38:59;26.30;;;17.17;;
35602;SDS011;21725;50.836;4.368;2022-09-11T01:43:54;21.63;;;17.33;;
35602;SDS011;21725;50.836;4.368;2022-09-11T01:46:26;22.45;;;17.58;;
35602;SDS011;21725;50.836;4.368;2022-09-11T01:49:02;27.30;;;18.52;;
35602;SDS011;21725;50.836;4.368;2022-09-11T01:51:31;25.25;;;18.85;;
35602;SDS011;21725;50.836;4.368;2022-09-11T01:53:59;22.60;;;18.30;;
35602;SDS011;21725;50.836;4.368;2022-09-11T01:56:34;24.13;;;19.50;;
35602;SDS011;21725;50.836;4.368;2022-09-11T01:59:05;27.05;;;19.52;;
35602;SDS011;21725;50.836;4.368;2022-09-11T02:01:35;27.92;;;19.58;;
35602;SDS011;21725;50.836;4.368;2022-09-11T02:04:08;28.75;;;19.92;;
35602;SDS011;21725;50.836;4.368;2022-09-11T02:06:46;24.60;;;18.40;;
35602;SDS011;21725;50.836;4.368;2022-09-11T02:09:17;23.33;;;18.10;;
35602;SDS011;21725;50.836;4.368;2022-09-11T02:11:45;25.17;;;17.73;;
35602;SDS011;21725;50.836;4.368;2022-09-11T02:14:17;23.17;;;18.10;;
35602;SDS011;21725;50.836;4.368;2022-09-11T02:16:50;23.92;;;18.80;;
35602;SDS011;21725;50.836;4.368;2022-09-11T02:19:23;23.55;;;17.35;;
35602;SDS011;21725;50.836;4.368;2022-09-11T02:21:51;21.50;;;18.00;;
35602;SDS011;21725;50.836;4.368;2022-09-11T02:24:17;28.20;;;17.92;;
35602;SDS011;21725;50.836;4.368;2022-09-11T02:26:45;24.10;;;17.98;;
35602;SDS011;21725;50.836;4.368;2022-09-11T02:29:13;25.20;;;17.83;;
35602;SDS011;21725;50.836;4.368;2022-09-11T02:31:40;29.92;;;19.17;;
35602;SDS011;21725;50.836;4.368;2022-09-11T02:34:08;25.83;;;19.00;;
35602;SDS011;21725;50.836;4.368;2022-09-11T02:39:21;25.85;;;19.15;;
35602;SDS011;21725;50.836;4.368;2022-09-11T02:42:13;29.73;;;19.58;;
35602;SDS011;21725;50.836;4.368;2022-09-11T02:47:41;27.77;;;19.88;;
35602;SDS011;21725;50.836;4.368;2022-09-11T02:58:26;27.27;;;19.65;;
35602;SDS011;21725;50.836;4.368;2022-09-11T03:01:04;25.33;;;20.02;;
35602;SDS011;21725;50.836;4.368;2022-09-11T03:03:50;24.83;;;20.73;;
35602;SDS011;21725;50.836;4.368;2022-09-11T03:06:17;25.67;;;20.17;;
35602;SDS011;21725;50.836;4.368;2022-09-11T03:08:48;28.67;;;20.38;;
35602;SDS011;21725;50.836;4.368;2022-09-11T03:11:14;30.48;;;21.17;;
35602;SDS011;21725;50.836;4.368;2022-09-11T03:13:42;30.02;;;19.98;;
35602;SDS011;21725;50.836;4.368;2022-09-11T03:16:08;33.28;;;20.73;;
35602;SDS011;21725;50.836;4.368;2022-09-11T03:18:35;29.60;;;21.08;;
35602;SDS011;21725;50.836;4.368;2022-09-11T03:21:01;31.05;;;21.55;;
35602;SDS011;21725;50.836;4.368;2022-09-11T03:23:27;22.20;;;18.38;;
35602;SDS011;21725;50.836;4.368;2022-09-11T03:25:53;23.95;;;18.80;;
35602;SDS011;21725;50.836;4.368;2022-09-11T03:28:19;27.60;;;19.85;;
35602;SDS011;21725;50.836;4.368;2022-09-11T03:30:47;27.70;;;19.38;;
35602;SDS011;21725;50.836;4.368;2022-09-11T03:33:14;28.20;;;21.15;;
35602;SDS011;21725;50.836;4.368;2022-09-11T03:35:43;27.90;;;20.67;;
35602;SDS011;21725;50.836;4.368;2022-09-11T03:38:10;29.58;;;20.83;;
35602;SDS011;21725;50.836;4.368;2022-09-11T03:40:36;33.17;;;22.40;;
35602;SDS011;21725;50.836;4.368;2022-09-11T03:43:02;30.15;;;21.33;;
35602;SDS011;21725;50.836;4.368;2022-09-11T03:45:27;36.25;;;23.63;;
35602;SDS011;21725;50.836;4.368;2022-09-11T03:47:53;39.15;;;26.33;;
35602;SDS011;21725;50.836;4.368;2022-09-11T03:50:19;46.20;;;27.35;;
35602;SDS011;21725;50.836;4.368;2022-09-11T03:52:45;53.00;;;29.05;;
35602;SDS011;21725;50.836;4.368;2022-09-11T03:55:11;64.95;;;29.30;;
35602;SDS011;21725;50.836;4.368;2022-09-11T03:57:36;80.97;;;32.03;;
35602;SDS011;21725;50.836;4.368;2022-09-11T04:00:05;92.90;;;32.83;;
35602;SDS011;21725;50.836;4.368;2022-09-11T04:02:31;105.60;;;33.03;;
35602;SDS011;21725;50.836;4.368;2022-09-11T04:04:57;71.15;;;30.20;;
35602;SDS011;21725;50.836;4.368;2022-09-11T04:29:18;79.40;;;27.92;;
35602;SDS011;21725;50.836;4.368;2022-09-11T04:31:44;159.65;;;34.45;;
35602;SDS011;21725;50.836;4.368;2022-09-11T04:34:09;75.22;;;28.63;;
35602;SDS011;21725;50.836;4.368;2022-09-11T04:36:35;143.93;;;35.83;;
35602;SDS011;21725;50.836;4.368;2022-09-11T04:39:01;91.25;;;31.02;;
35602;SDS011;21725;50.836;4.368;2022-09-11T04:41:28;101.15;;;33.17;;
35602;SDS011;21725;50.836;4.368;2022-09-11T04:43:56;219.07;;;44.10;;
35602;SDS011;21725;50.836;4.368;2022-09-11T04:46:24;153.32;;;37.78;;
35602;SDS011;21725;50.836;4.368;2022-09-11T04:48:51;273.38;;;44.15;;
35602;SDS011;21725;50.836;4.368;2022-09-11T04:53:50;146.13;;;37.20;;
35602;SDS011;21725;50.836;4.368;2022-09-11T04:56:17;134.32;;;35.28;;
35602;SDS011;21725;50.836;4.368;2022-09-11T04:58:45;161.95;;;36.65;;
35602;SDS011;21725;50.836;4.368;2022-09-11T05:01:17;119.10;;;36.40;;
35602;SDS011;21725;50.836;4.368;2022-09-11T05:03:43;98.65;;;35.63;;
35602;SDS011;21725;50.836;4.368;2022-09-11T05:06:09;141.68;;;37.10;;
35602;SDS011;21725;50.836;4.368;2022-09-11T05:08:36;95.85;;;29.98;;
35602;SDS011;21725;50.836;4.368;2022-09-11T05:11:05;80.90;;;27.13;;
35602;SDS011;21725;50.836;4.368;2022-09-11T05:13:31;252.65;;;41.70;;
35602;SDS011;21725;50.836;4.368;2022-09-11T05:16:01;215.27;;;38.72;;
35602;SDS011;21725;50.836;4.368;2022-09-11T05:18:48;294.42;;;42.30;;
35602;SDS011;21725;50.836;4.368;2022-09-11T05:21:16;296.95;;;44.65;;
35602;SDS011;21725;50.836;4.368;2022-09-11T05:23:45;236.30;;;42.38;;
35602;SDS011;21725;50.836;4.368;2022-09-11T05:26:13;313.50;;;49.38;;
35602;SDS011;21725;50.836;4.368;2022-09-11T05:28:44;227.15;;;47.72;;
35602;SDS011;21725;50.836;4.368;2022-09-11T05:31:11;170.52;;;41.10;;
35602;SDS011;21725;50.836;4.368;2022-09-11T05:33:39;188.05;;;43.45;;
35602;SDS011;21725;50.836;4.368;2022-09-11T05:36:05;140.60;;;43.17;;
35602;SDS011;21725;50.836;4.368;2022-09-11T05:38:33;116.60;;;41.00;;
35602;SDS011;21725;50.836;4.368;2022-09-11T05:41:00;92.60;;;38.40;;
35602;SDS011;21725;50.836;4.368;2022-09-11T05:43:26;97.47;;;38.25;;
35602;SDS011;21725;50.836;4.368;2022-09-11T05:45:55;104.00;;;39.67;;
35602;SDS011;21725;50.836;4.368;2022-09-11T05:48:22;220.82;;;42.97;;
35602;SDS011;21725;50.836;4.368;2022-09-11T05:50:55;206.57;;;41.88;;
35602;SDS011;21725;50.836;4.368;2022-09-11T05:53:25;251.15;;;50.15;;
35602;SDS011;21725;50.836;4.368;2022-09-11T05:55:52;163.45;;;39.42;;
35602;SDS011;21725;50.836;4.368;2022-09-11T05:58:19;171.35;;;43.80;;
35602;SDS011;21725;50.836;4.368;2022-09-11T06:00:45;216.95;;;47.33;;
35602;SDS011;21725;50.836;4.368;2022-09-11T06:03:12;307.08;;;55.60;;
35602;SDS011;21725;50.836;4.368;2022-09-11T06:05:38;78.93;;;37.40;;
35602;SDS011;21725;50.836;4.368;2022-09-11T06:08:04;231.77;;;46.88;;
35602;SDS011;21725;50.836;4.368;2022-09-11T06:10:31;162.82;;;43.30;;
35602;SDS011;21725;50.836;4.368;2022-09-11T06:12:57;293.88;;;53.90;;
35602;SDS011;21725;50.836;4.368;2022-09-11T06:15:23;121.30;;;36.17;;
35602;SDS011;21725;50.836;4.368;2022-09-11T06:17:49;85.90;;;36.47;;
35602;SDS011;21725;50.836;4.368;2022-09-11T06:20:15;104.50;;;39.25;;
35602;SDS011;21725;50.836;4.368;2022-09-11T06:22:40;146.90;;;41.28;;
35602;SDS011;21725;50.836;4.368;2022-09-11T06:25:06;83.85;;;38.28;;
35602;SDS011;21725;50.836;4.368;2022-09-11T06:27:33;65.60;;;32.58;;
35602;SDS011;21725;50.836;4.368;2022-09-11T06:29:59;53.65;;;32.60;;
35602;SDS011;21725;50.836;4.368;2022-09-11T06:32:24;89.97;;;37.65;;
35602;SDS011;21725;50.836;4.368;2022-09-11T06:34:50;69.30;;;33.58;;
35602;SDS011;21725;50.836;4.368;2022-09-11T06:37:16;52.20;;;32.88;;
35602;SDS011;21725;50.836;4.368;2022-09-11T06:39:41;56.22;;;31.48;;
35602;SDS011;21725;50.836;4.368;2022-09-11T06:42:10;74.17;;;34.93;;
35602;SDS011;21725;50.836;4.368;2022-09-11T06:44:35;59.80;;;32.88;;
35602;SDS011;21725;50.836;4.368;2022-09-11T06:47:01;58.08;;;30.75;;
35602;SDS011;21725;50.836;4.368;2022-09-11T06:49:27;51.83;;;30.75;;
35602;SDS011;21725;50.836;4.368;2022-09-11T06:51:53;48.33;;;30.23;;
35602;SDS011;21725;50.836;4.368;2022-09-11T06:54:19;43.75;;;29.77;;
35602;SDS011;21725;50.836;4.368;2022-09-11T06:56:45;51.75;;;31.45;;
35602;SDS011;21725;50.836;4.368;2022-09-11T06:59:10;40.22;;;30.10;;
35602;SDS011;21725;50.836;4.368;2022-09-11T07:01:37;40.10;;;29.05;;
35602;SDS011;21725;50.836;4.368;2022-09-11T07:04:03;45.72;;;29.48;;
35602;SDS011;21725;50.836;4.368;2022-09-11T07:06:29;40.63;;;28.77;;
35602;SDS011;21725;50.836;4.368;2022-09-11T07:11:36;40.15;;;29.85;;
35602;SDS011;21725;50.836;4.368;2022-09-11T07:14:03;41.47;;;29.55;;
35602;SDS011;21725;50.836;4.368;2022-09-11T07:16:33;42.38;;;32.70;;
35602;SDS011;21725;50.836;4.368;2022-09-11T07:18:59;40.28;;;29.45;;
35602;SDS011;21725;50.836;4.368;2022-09-11T07:21:25;44.80;;;31.20;;
35602;SDS011;21725;50.836;4.368;2022-09-11T07:23:52;46.65;;;33.13;;
35602;SDS011;21725;50.836;4.368;2022-09-11T07:26:24;41.78;;;30.05;;
35602;SDS011;21725;50.836;4.368;2022-09-11T07:28:52;41.50;;;31.75;;
35602;SDS011;21725;50.836;4.368;2022-09-11T07:31:24;41.53;;;30.65;;
35602;SDS011;21725;50.836;4.368;2022-09-11T07:33:53;40.83;;;30.52;;
35602;SDS011;21725;50.836;4.368;2022-09-11T07:38:46;43.83;;;31.90;;
35602;SDS011;21725;50.836;4.368;2022-09-11T07:41:13;39.50;;;29.05;;
35602;SDS011;21725;50.836;4.368;2022-09-11T07:43:40;42.38;;;32.00;;
35602;SDS011;21725;50.836;4.368;2022-09-11T07:46:11;42.97;;;30.45;;
35602;SDS011;21725;50.836;4.368;2022-09-11T07:48:39;35.92;;;29.08;;
35602;SDS011;21725;50.836;4.368;2022-09-11T07:51:07;39.00;;;29.40;;
35602;SDS011;21725;50.836;4.368;2022-09-11T07:53:35;39.10;;;31.10;;
35602;SDS011;21725;50.836;4.368;2022-09-11T07:56:05;47.13;;;31.35;;
35602;SDS011;21725;50.836;4.368;2022-09-11T07:58:33;42.22;;;31.48;;
35602;SDS011;21725;50.836;4.368;2022-09-11T08:01:02;40.50;;;31.02;;
35602;SDS011;21725;50.836;4.368;2022-09-11T08:03:29;43.25;;;31.50;;
35602;SDS011;21725;50.836;4.368;2022-09-11T08:05:59;42.58;;;31.30;;
35602;SDS011;21725;50.836;4.368;2022-09-11T08:08:30;36.10;;;29.48;;
35602;SDS011;21725;50.836;4.368;2022-09-11T08:10:56;36.80;;;28.55;;
35602;SDS011;21725;50.836;4.368;2022-09-11T08:13:31;35.08;;;28.70;;
35602;SDS011;21725;50.836;4.368;2022-09-11T08:15:57;33.85;;;27.20;;
35602;SDS011;21725;50.836;4.368;2022-09-11T08:18:23;33.30;;;27.55;;
35602;SDS011;21725;50.836;4.368;2022-09-11T08:20:49;34.53;;;25.98;;
35602;SDS011;21725;50.836;4.368;2022-09-11T08:23:15;40.35;;;30.20;;
35602;SDS011;21725;50.836;4.368;2022-09-11T08:25:41;31.33;;;26.80;;
35602;SDS011;21725;50.836;4.368;2022-09-11T08:28:07;35.58;;;28.25;;
35602;SDS011;21725;50.836;4.368;2022-09-11T08:30:34;34.63;;;27.65;;
35602;SDS011;21725;50.836;4.368;2022-09-11T08:33:03;36.38;;;29.35;;
35602;SDS011;21725;50.836;4.368;2022-09-11T08:35:30;31.58;;;26.80;;
35602;SDS011;21725;50.836;4.368;2022-09-11T08:37:57;31.85;;;25.75;;
35602;SDS011;21725;50.836;4.368;2022-09-11T08:40:24;31.08;;;24.50;;
35602;SDS011;21725;50.836;4.368;2022-09-11T08:42:51;32.53;;;27.67;;
35602;SDS011;21725;50.836;4.368;2022-09-11T08:45:29;31.92;;;25.58;;
35602;SDS011;21725;50.836;4.368;2022-09-11T08:47:58;30.23;;;25.85;;
35602;SDS011;21725;50.836;4.368;2022-09-11T08:50:46;30.55;;;25.60;;
35602;SDS011;21725;50.836;4.368;2022-09-11T08:53:15;32.33;;;24.90;;
35602;SDS011;21725;50.836;4.368;2022-09-11T08:55:54;33.80;;;25.58;;
35602;SDS011;21725;50.836;4.368;2022-09-11T09:01:25;34.05;;;27.15;;
35602;SDS011;21725;50.836;4.368;2022-09-11T09:16:07;30.27;;;26.08;;
35602;SDS011;21725;50.836;4.368;2022-09-11T09:19:09;37.55;;;29.08;;
35602;SDS011;21725;50.836;4.368;2022-09-11T09:21:55;32.28;;;27.10;;
35602;SDS011;21725;50.836;4.368;2022-09-11T09:24:26;33.67;;;28.75;;
35602;SDS011;21725;50.836;4.368;2022-09-11T09:26:58;32.70;;;25.67;;
35602;SDS011;21725;50.836;4.368;2022-09-11T09:29:28;30.50;;;26.00;;
35602;SDS011;21725;50.836;4.368;2022-09-11T09:32:00;30.38;;;25.80;;
35602;SDS011;21725;50.836;4.368;2022-09-11T09:34:32;32.85;;;25.70;;
35602;SDS011;21725;50.836;4.368;2022-09-11T09:39:28;29.92;;;26.40;;
35602;SDS011;21725;50.836;4.368;2022-09-11T09:42:01;31.02;;;25.55;;
35602;SDS011;21725;50.836;4.368;2022-09-11T09:44:43;26.95;;;24.02;;
35602;SDS011;21725;50.836;4.368;2022-09-11T09:47:29;26.98;;;23.95;;
35602;SDS011;21725;50.836;4.368;2022-09-11T09:49:56;26.35;;;23.55;;
35602;SDS011;21725;50.836;4.368;2022-09-11T09:52:26;30.77;;;26.15;;
35602;SDS011;21725;50.836;4.368;2022-09-11T09:55:01;30.58;;;23.95;;
35602;SDS011;21725;50.836;4.368;2022-09-11T09:57:34;29.92;;;24.65;;
35602;SDS011;21725;50.836;4.368;2022-09-11T10:00:03;31.40;;;25.00;;
35602;SDS011;21725;50.836;4.368;2022-09-11T10:02:52;26.73;;;23.67;;
35602;SDS011;21725;50.836;4.368;2022-09-11T10:27:30;27.63;;;24.55;;
35602;SDS011;21725;50.836;4.368;2022-09-11T10:30:00;30.30;;;24.60;;
35602;SDS011;21725;50.836;4.368;2022-09-11T10:32:27;27.17;;;23.13;;
35602;SDS011;21725;50.836;4.368;2022-09-11T10:34:54;26.83;;;21.70;;
35602;SDS011;21725;50.836;4.368;2022-09-11T10:37:29;20.70;;;17.88;;
35602;SDS011;21725;50.836;4.368;2022-09-11T10:40:01;22.23;;;17.58;;
35602;SDS011;21725;50.836;4.368;2022-09-11T10:42:41;22.95;;;17.67;;
35602;SDS011;21725;50.836;4.368;2022-09-11T10:48:22;18.08;;;15.82;;
35602;SDS011;21725;50.836;4.368;2022-09-11T10:50:52;18.23;;;15.65;;
35602;SDS011;21725;50.836;4.368;2022-09-11T10:53:38;17.35;;;12.30;;
35602;SDS011;21725;50.836;4.368;2022-09-11T10:56:17;16.35;;;9.40;;
35602;SDS011;21725;50.836;4.368;2022-09-11T10:58:48;11.27;;;8.52;;
35602;SDS011;21725;50.836;4.368;2022-09-11T11:01:20;15.68;;;8.93;;
35602;SDS011;21725;50.836;4.368;2022-09-11T11:03:46;13.60;;;10.73;;
35602;SDS011;21725;50.836;4.368;2022-09-11T11:06:29;10.88;;;9.45;;
35602;SDS011;21725;50.836;4.368;2022-09-11T11:20:58;11.18;;;8.75;;
35602;SDS011;21725;50.836;4.368;2022-09-11T11:23:49;11.32;;;8.98;;
35602;SDS011;21725;50.836;4.368;2022-09-11T11:26:41;12.30;;;10.33;;
35602;SDS011;21725;50.836;4.368;2022-09-11T11:29:26;16.10;;;10.10;;
35602;SDS011;21725;50.836;4.368;2022-09-11T11:37:44;13.18;;;9.38;;
35602;SDS011;21725;50.836;4.368;2022-09-11T11:40:21;11.93;;;9.27;;
35602;SDS011;21725;50.836;4.368;2022-09-11T11:45:30;13.27;;;8.85;;
35602;SDS011;21725;50.836;4.368;2022-09-11T11:48:21;11.95;;;8.43;;
35602;SDS011;21725;50.836;4.368;2022-09-11T11:50:51;10.45;;;8.40;;
35602;SDS011;21725;50.836;4.368;2022-09-11T11:53:29;10.95;;;8.30;;
35602;SDS011;21725;50.836;4.368;2022-09-11T11:56:19;12.18;;;7.95;;
35602;SDS011;21725;50.836;4.368;2022-09-11T12:04:26;10.80;;;6.90;;
35602;SDS011;21725;50.836;4.368;2022-09-11T12:07:21;10.98;;;7.43;;
35602;SDS011;21725;50.836;4.368;2022-09-11T12:10:17;10.75;;;6.82;;
35602;SDS011;21725;50.836;4.368;2022-09-11T12:19:35;11.25;;;7.18;;
35602;SDS011;21725;50.836;4.368;2022-09-11T12:22:33;8.57;;;5.47;;
35602;SDS011;21725;50.836;4.368;2022-09-11T12:28:23;7.93;;;6.45;;
35602;SDS011;21725;50.836;4.368;2022-09-11T12:31:09;7.93;;;5.80;;
35602;SDS011;21725;50.836;4.368;2022-09-11T12:37:18;7.80;;;6.05;;
35602;SDS011;21725;50.836;4.368;2022-09-11T12:40:05;7.78;;;5.50;;
35602;SDS011;21725;50.836;4.368;2022-09-11T12:42:45;9.23;;;4.93;;
35602;SDS011;21725;50.836;4.368;2022-09-11T12:45:29;7.15;;;6.10;;
35602;SDS011;21725;50.836;4.368;2022-09-11T12:48:02;10.80;;;5.90;;
35602;SDS011;21725;50.836;4.368;2022-09-11T12:50:35;6.82;;;4.80;;
35602;SDS011;21725;50.836;4.368;2022-09-11T12:53:02;6.75;;;5.20;;
35602;SDS011;21725;50.836;4.368;2022-09-11T12:55:36;7.60;;;4.85;;
35602;SDS011;21725;50.836;4.368;2022-09-11T12:58:27;7.70;;;4.90;;
35602;SDS011;21725;50.836;4.368;2022-09-11T13:01:21;5.70;;;4.53;;
35602;SDS011;21725;50.836;4.368;2022-09-11T13:03:59;8.18;;;4.88;;
35602;SDS011;21725;50.836;4.368;2022-09-11T13:06:51;6.65;;;5.18;;
35602;SDS011;21725;50.836;4.368;2022-09-11T13:09:29;6.53;;;5.55;;
35602;SDS011;21725;50.836;4.368;2022-09-11T13:14:53;7.00;;;5.68;;
35602;SDS011;21725;50.836;4.368;2022-09-11T13:17:24;7.40;;;6.15;;
35602;SDS011;21725;50.836;4.368;2022-09-11T13:22:33;5.93;;;4.45;;
35602;SDS011;21725;50.836;4.368;2022-09-11T13:25:08;6.93;;;5.18;;
35602;SDS011;21725;50.836;4.368;2022-09-11T13:27:38;6.63;;;4.90;;
35602;SDS011;21725;50.836;4.368;2022-09-11T13:30:13;6.72;;;4.10;;
35602;SDS011;21725;50.836;4.368;2022-09-11T13:32:43;8.25;;;4.53;;
35602;SDS011;21725;50.836;4.368;2022-09-11T13:35:16;6.68;;;5.03;;
35602;SDS011;21725;50.836;4.368;2022-09-11T13:37:57;6.35;;;4.63;;
35602;SDS011;21725;50.836;4.368;2022-09-11T13:40:44;6.45;;;4.30;;
35602;SDS011;21725;50.836;4.368;2022-09-11T13:43:22;4.47;;;3.60;;
35602;SDS011;21725;50.836;4.368;2022-09-11T13:48:41;7.07;;;3.97;;
35602;SDS011;21725;50.836;4.368;2022-09-11T13:51:14;6.05;;;3.78;;
35602;SDS011;21725;50.836;4.368;2022-09-11T13:53:43;7.28;;;4.60;;
35602;SDS011;21725;50.836;4.368;2022-09-11T13:56:35;6.43;;;4.28;;
35602;SDS011;21725;50.836;4.368;2022-09-11T14:01:59;6.68;;;3.85;;
35602;SDS011;21725;50.836;4.368;2022-09-11T14:04:25;8.10;;;3.55;;
35602;SDS011;21725;50.836;4.368;2022-09-11T14:06:53;5.50;;;3.88;;
35602;SDS011;21725;50.836;4.368;2022-09-11T14:09:19;5.45;;;3.15;;
35602;SDS011;21725;50.836;4.368;2022-09-11T14:11:46;4.43;;;3.20;;
35602;SDS011;21725;50.836;4.368;2022-09-11T14:14:17;4.88;;;3.40;;
35602;SDS011;21725;50.836;4.368;2022-09-11T14:16:53;4.95;;;3.55;;
35602;SDS011;21725;50.836;4.368;2022-09-11T14:19:23;5.32;;;3.40;;
35602;SDS011;21725;50.836;4.368;2022-09-11T14:21:51;7.43;;;3.60;;
35602;SDS011;21725;50.836;4.368;2022-09-11T14:24:23;5.25;;;3.20;;
35602;SDS011;21725;50.836;4.368;2022-09-11T14:26:52;5.15;;;3.80;;
35602;SDS011;21725;50.836;4.368;2022-09-11T14:32:20;5.53;;;3.80;;
35602;SDS011;21725;50.836;4.368;2022-09-11T14:34:55;6.78;;;2.95;;
35602;SDS011;21725;50.836;4.368;2022-09-11T14:37:20;6.93;;;3.40;;
35602;SDS011;21725;50.836;4.368;2022-09-11T14:39:48;4.00;;;2.70;;
35602;SDS011;21725;50.836;4.368;2022-09-11T14:42:21;3.95;;;2.80;;
35602;SDS011;21725;50.836;4.368;2022-09-11T14:44:49;5.60;;;2.95;;
35602;SDS011;21725;50.836;4.368;2022-09-11T14:47:19;5.32;;;2.70;;
35602;SDS011;21725;50.836;4.368;2022-09-11T14:49:47;4.97;;;3.30;;
35602;SDS011;21725;50.836;4.368;2022-09-11T14:52:15;4.72;;;2.80;;
35602;SDS011;21725;50.836;4.368;2022-09-11T14:54:43;8.57;;;2.67;;
35602;SDS011;21725;50.836;4.368;2022-09-11T14:57:11;7.13;;;3.13;;
35602;SDS011;21725;50.836;4.368;2022-09-11T14:59:38;5.65;;;3.63;;
35602;SDS011;21725;50.836;4.368;2022-09-11T15:02:09;4.50;;;2.88;;
35602;SDS011;21725;50.836;4.368;2022-09-11T15:04:41;10.32;;;3.60;;
35602;SDS011;21725;50.836;4.368;2022-09-11T15:07:10;4.50;;;2.95;;
35602;SDS011;21725;50.836;4.368;2022-09-11T15:09:37;4.38;;;3.25;;
35602;SDS011;21725;50.836;4.368;2022-09-11T15:12:04;5.70;;;2.92;;
35602;SDS011;21725;50.836;4.368;2022-09-11T15:14:30;3.80;;;2.80;;
35602;SDS011;21725;50.836;4.368;2022-09-11T15:16:57;5.55;;;3.33;;
35602;SDS011;21725;50.836;4.368;2022-09-11T15:19:27;3.80;;;2.90;;
35602;SDS011;21725;50.836;4.368;2022-09-11T15:21:53;5.97;;;2.45;;
35602;SDS011;21725;50.836;4.368;2022-09-11T15:26:49;4.93;;;3.08;;
35602;SDS011;21725;50.836;4.368;2022-09-11T15:29:18;4.57;;;2.50;;
35602;SDS011;21725;50.836;4.368;2022-09-11T15:31:45;5.03;;;2.40;;
35602;SDS011;21725;50.836;4.368;2022-09-11T15:34:12;4.53;;;2.80;;
35602;SDS011;21725;50.836;4.368;2022-09-11T15:36:39;4.65;;;2.83;;
35602;SDS011;21725;50.836;4.368;2022-09-11T15:39:10;5.95;;;3.50;;
35602;SDS011;21725;50.836;4.368;2022-09-11T15:41:41;4.07;;;2.53;;
35602;SDS011;21725;50.836;4.368;2022-09-11T15:44:11;4.82;;;2.85;;
35602;SDS011;21725;50.836;4.368;2022-09-11T15:46:44;2.83;;;2.00;;
35602;SDS011;21725;50.836;4.368;2022-09-11T15:49:10;4.40;;;2.30;;
35602;SDS011;21725;50.836;4.368;2022-09-11T15:51:35;4.68;;;2.45;;
35602;SDS011;21725;50.836;4.368;2022-09-11T15:54:03;3.95;;;2.40;;
35602;SDS011;21725;50.836;4.368;2022-09-11T15:56:29;5.93;;;2.67;;
35602;SDS011;21725;50.836;4.368;2022-09-11T15:58:55;7.63;;;4.25;;
35602;SDS011;21725;50.836;4.368;2022-09-11T16:01:23;6.30;;;2.47;;
35602;SDS011;21725;50.836;4.368;2022-09-11T16:03:55;3.67;;;2.60;;
35602;SDS011;21725;50.836;4.368;2022-09-11T16:29:15;3.53;;;2.42;;
35602;SDS011;21725;50.836;4.368;2022-09-11T16:31:42;3.83;;;2.55;;
35602;SDS011;21725;50.836;4.368;2022-09-11T16:34:08;9.30;;;2.60;;
35602;SDS011;21725;50.836;4.368;2022-09-11T16:36:34;3.90;;;2.40;;
35602;SDS011;21725;50.836;4.368;2022-09-11T16:39:09;4.53;;;2.20;;
35602;SDS011;21725;50.836;4.368;2022-09-11T16:41:39;6.80;;;2.20;;
35602;SDS011;21725;50.836;4.368;2022-09-11T16:44:07;4.47;;;2.38;;
35602;SDS011;21725;50.836;4.368;2022-09-11T16:46:37;3.80;;;1.95;;
35602;SDS011;21725;50.836;4.368;2022-09-11T16:49:07;4.40;;;2.92;;
35602;SDS011;21725;50.836;4.368;2022-09-11T16:51:43;5.05;;;3.33;;
35602;SDS011;21725;50.836;4.368;2022-09-11T16:54:10;4.22;;;2.95;;
35602;SDS011;21725;50.836;4.368;2022-09-11T16:56:35;5.13;;;2.83;;
35602;SDS011;21725;50.836;4.368;2022-09-11T16:59:01;5.40;;;2.88;;
35602;SDS011;21725;50.836;4.368;2022-09-11T17:01:27;3.75;;;2.50;;
35602;SDS011;21725;50.836;4.368;2022-09-11T17:03:54;4.05;;;2.30;;
35602;SDS011;21725;50.836;4.368;2022-09-11T17:06:21;3.22;;;2.22;;
35602;SDS011;21725;50.836;4.368;2022-09-11T17:08:48;5.63;;;2.28;;
35602;SDS011;21725;50.836;4.368;2022-09-11T17:11:15;3.78;;;2.33;;
35602;SDS011;21725;50.836;4.368;2022-09-11T17:13:43;5.50;;;2.75;;
35602;SDS011;21725;50.836;4.368;2022-09-11T17:16:10;3.15;;;2.20;;
35602;SDS011;21725;50.836;4.368;2022-09-11T17:18:38;4.78;;;2.15;;
35602;SDS011;21725;50.836;4.368;2022-09-11T17:21:04;4.05;;;2.40;;
35602;SDS011;21725;50.836;4.368;2022-09-11T17:23:32;6.10;;;2.72;;
35602;SDS011;21725;50.836;4.368;2022-09-11T17:25:59;6.03;;;3.03;;
35602;SDS011;21725;50.836;4.368;2022-09-11T17:28:28;6.32;;;2.45;;
35602;SDS011;21725;50.836;4.368;2022-09-11T17:30:59;4.40;;;2.72;;
35602;SDS011;21725;50.836;4.368;2022-09-11T17:33:26;3.60;;;2.50;;
35602;SDS011;21725;50.836;4.368;2022-09-11T17:35:52;6.15;;;3.20;;
35602;SDS011;21725;50.836;4.368;2022-09-11T17:38:17;4.55;;;3.05;;
35602;SDS011;21725;50.836;4.368;2022-09-11T17:40:43;4.18;;;2.67;;
35602;SDS011;21725;50.836;4.368;2022-09-11T17:43:10;5.00;;;2.92;;
35602;SDS011;21725;50.836;4.368;2022-09-11T17:45:37;3.95;;;2.30;;
35602;SDS011;21725;50.836;4.368;2022-09-11T17:48:06;5.15;;;3.63;;
35602;SDS011;21725;50.836;4.368;2022-09-11T17:50:32;5.25;;;3.35;;